createdAt,value
2023-01-02T00:02:06.262Z,98531.38
2023-01-02T00:04:38.611Z,98527.41
2023-01-02T00:07:10.979Z,98530.69
2023-01-02T00:09:43.338Z,98523.66
2023-01-02T00:12:15.265Z,98528.09
2023-01-02T00:14:47.656Z,98522.31
2023-01-02T00:17:20.645Z,98536.28
2023-01-02T00:19:53.501Z,98531.81
2023-01-02T00:22:25.483Z,98533.91
2023-01-02T00:24:58.207Z,98539.31
2023-01-02T00:27:31.001Z,98526.16
2023-01-02T00:30:03.062Z,98520.25
2023-01-02T00:32:35.881Z,98518.16
2023-01-02T00:35:08.459Z,98520.81
2023-01-02T00:37:41.223Z,98521.53
2023-01-02T00:40:14.409Z,98526.19
2023-01-02T00:42:47.133Z,98519.59
2023-01-02T00:45:19.546Z,98504.38
2023-01-02T00:47:51.519Z,98498.47
2023-01-02T00:50:24.717Z,98496.97
2023-01-02T00:52:57.464Z,98494.47
2023-01-02T00:55:29.886Z,98497.16
2023-01-02T00:58:02.654Z,98507.06
2023-01-02T01:00:34.642Z,98500.44
2023-01-02T01:03:08.252Z,98499.13
2023-01-02T01:05:40.429Z,98503.69
2023-01-02T01:08:13.623Z,98501.13
2023-01-02T01:10:45.930Z,98503.78
2023-01-02T01:13:17.957Z,98522.25
2023-01-02T01:15:50.749Z,98503.81
2023-01-02T01:18:23.259Z,98520.28
2023-01-02T01:20:56.230Z,98514.34
2023-01-02T01:23:31.694Z,98510.41
2023-01-02T01:26:12.067Z,98513.72
2023-01-02T01:28:44.108Z,98511.03
2023-01-02T01:31:18.422Z,98523.59
2023-01-02T01:33:51.251Z,98512.34
2023-01-02T01:36:24.689Z,98513.69
2023-01-02T01:38:57.471Z,98517.00
2023-01-02T01:41:29.442Z,98511.72
2023-01-02T01:44:03.670Z,98519.63
2023-01-02T01:46:48.159Z,98515.69
2023-01-02T01:49:30.939Z,98524.94
2023-01-02T01:52:09.191Z,98522.25
2023-01-02T01:54:52.931Z,98526.22
2023-01-02T01:57:37.794Z,98527.47
2023-01-02T02:00:11.528Z,98525.44
2023-01-02T02:02:48.656Z,98518.84
2023-01-02T02:05:26.256Z,98514.25
2023-01-02T02:08:48.185Z,98514.31
2023-01-02T02:11:21.343Z,98512.34
2023-01-02T02:14:02.528Z,98507.72
2023-01-02T02:17:05.960Z,98507.69
2023-01-02T02:20:01.361Z,98504.97
2023-01-02T02:23:16.205Z,98502.91
2023-01-02T02:26:20.355Z,98497.56
2023-01-02T02:29:53.232Z,98496.97
2023-01-02T02:33:22.887Z,98491.66
2023-01-02T02:36:40.170Z,98490.88
2023-01-02T02:40:11.247Z,98495.53
2023-01-02T02:43:18.145Z,98499.50
2023-01-02T02:46:04.910Z,98499.53
2023-01-02T02:48:50.410Z,98502.91
2023-01-02T02:51:49.904Z,98500.31
2023-01-02T02:54:40.637Z,98501.69
2023-01-02T02:57:15.374Z,98512.22
2023-01-02T02:59:47.353Z,98502.34
2023-01-02T03:02:20.877Z,98503.03
2023-01-02T03:05:02.445Z,98497.06
2023-01-02T03:07:54.490Z,98503.66
2023-01-02T03:10:52.252Z,98485.84
2023-01-02T03:13:41.839Z,98489.78
2023-01-02T03:16:27.617Z,98491.09
2023-01-02T03:19:38.130Z,98478.00
2023-01-02T03:22:25.259Z,98476.69
2023-01-02T03:24:58.747Z,98485.91
2023-01-02T03:27:36.511Z,98479.38
2023-01-02T03:30:16.476Z,98485.97
2023-01-02T03:33:00.484Z,98472.06
2023-01-02T03:35:44.140Z,98470.69
2023-01-02T03:38:27.861Z,98476.06
2023-01-02T03:41:22.039Z,98468.03
2023-01-02T03:43:57.450Z,98468.78
2023-01-02T03:46:47.339Z,98461.19
2023-01-02T03:49:30.821Z,98464.03
2023-01-02T03:52:03.189Z,98467.91
2023-01-02T03:54:39.010Z,98469.25
2023-01-02T03:57:34.086Z,98476.06
2023-01-02T04:00:15.810Z,98477.41
2023-01-02T04:03:17.385Z,98489.91
2023-01-02T04:06:00.122Z,98483.97
2023-01-02T04:09:14.300Z,98480.03
2023-01-02T04:11:53.917Z,98480.69
2023-01-02T04:14:40.586Z,98487.25
2023-01-02T04:17:16.906Z,98495.84
2023-01-02T04:20:03.877Z,98487.94
2023-01-02T04:22:47.563Z,98486.63
2023-01-02T04:25:20.112Z,98479.38
2023-01-02T04:28:18.352Z,98491.22
2023-01-02T04:31:21.964Z,98495.84
2023-01-02T04:33:59.753Z,98491.91
2023-01-02T04:36:37.867Z,98483.31
2023-01-02T04:39:10.893Z,98496.53
2023-01-02T04:41:43.117Z,98491.22
2023-01-02T04:44:16.323Z,98489.94
2023-01-02T04:46:48.682Z,98493.88
2023-01-02T04:49:23.191Z,98489.91
2023-01-02T04:51:55.089Z,98501.78
2023-01-02T04:54:28.211Z,98510.28
2023-01-02T04:57:01.303Z,98504.97
2023-01-02T04:59:34.454Z,98497.13
2023-01-02T05:02:06.843Z,98506.91
2023-01-02T05:04:40.514Z,98508.19
2023-01-02T05:07:15.177Z,98513.47
2023-01-02T05:09:47.931Z,98504.19
2023-01-02T05:12:20.222Z,98507.56
2023-01-02T05:14:52.525Z,98496.41
2023-01-02T05:17:24.422Z,98508.84
2023-01-02T05:19:57.174Z,98502.78
2023-01-02T05:22:47.439Z,98500.19
2023-01-02T05:25:20.213Z,98502.81
2023-01-02T05:27:56.131Z,98511.31
2023-01-02T05:30:31.345Z,98515.22
2023-01-02T05:33:03.633Z,98512.78
2023-01-02T05:35:36.774Z,98522.13
2023-01-02T05:38:09.480Z,98531.28
2023-01-02T05:40:41.377Z,98522.75
2023-01-02T05:43:14.160Z,98535.88
2023-01-02T05:45:46.054Z,98531.34
2023-01-02T05:48:18.764Z,98529.50
2023-01-02T05:50:51.285Z,98540.06
2023-01-02T05:53:24.028Z,98529.47
2023-01-02T05:55:56.061Z,98532.81
2023-01-02T05:58:33.327Z,98535.47
2023-01-02T06:01:16.322Z,98532.81
2023-01-02T06:03:51.575Z,98532.84
2023-01-02T06:06:29.880Z,98544.72
2023-01-02T06:09:02.890Z,98553.88
2023-01-02T06:11:36.979Z,98557.75
2023-01-02T06:14:10.598Z,98557.84
2023-01-02T06:16:43.373Z,98560.41
2023-01-02T06:19:15.663Z,98580.03
2023-01-02T06:21:48.783Z,98563.56
2023-01-02T06:24:20.713Z,98565.50
2023-01-02T06:26:53.477Z,98566.84
2023-01-02T06:29:25.777Z,98556.59
2023-01-02T06:31:58.638Z,98553.91
2023-01-02T06:34:30.978Z,98568.31
2023-01-02T06:37:09.399Z,98570.91
2023-01-02T06:39:41.929Z,98561.69
2023-01-02T06:42:13.925Z,98573.56
2023-01-02T06:44:47.584Z,98573.03
2023-01-02T06:47:19.884Z,98588.00
2023-01-02T06:49:52.954Z,98585.44
2023-01-02T06:52:24.867Z,98577.66
2023-01-02T06:54:58.042Z,98584.03
2023-01-02T06:57:31.421Z,98581.38
2023-01-02T07:00:06.033Z,98576.19
2023-01-02T07:02:38.529Z,98594.69
2023-01-02T07:05:11.240Z,98601.84
2023-01-02T07:07:43.568Z,98611.06
2023-01-02T07:10:15.438Z,98600.50
2023-01-02T07:12:48.177Z,98586.06
2023-01-02T07:15:20.745Z,98590.75
2023-01-02T07:17:53.108Z,98604.53
2023-01-02T07:20:25.433Z,98593.47
2023-01-02T07:22:57.333Z,98591.50
2023-01-02T07:25:30.115Z,98603.38
2023-01-02T07:28:03.978Z,98627.72
2023-01-02T07:30:35.883Z,98615.81
2023-01-02T07:33:08.615Z,98620.28
2023-01-02T07:35:40.808Z,98621.16
2023-01-02T07:38:13.962Z,98634.56
2023-01-02T07:40:46.643Z,98635.81
2023-01-02T07:43:20.155Z,98641.00
2023-01-02T07:45:52.741Z,98631.72
2023-01-02T07:48:25.100Z,98640.41
2023-01-02T07:51:06.108Z,98648.97
2023-01-02T07:53:38.740Z,98650.03
2023-01-02T07:56:11.933Z,98651.91
2023-01-02T07:58:44.315Z,98637.59
2023-01-02T08:01:17.204Z,98638.22
2023-01-02T08:03:50.393Z,98653.25
2023-01-02T08:06:23.267Z,98636.16
2023-01-02T08:08:55.428Z,98643.88
2023-01-02T08:11:28.259Z,98669.59
2023-01-02T08:14:00.569Z,98672.16
2023-01-02T08:16:33.829Z,98670.19
2023-01-02T08:19:06.566Z,98678.72
2023-01-02T08:21:38.843Z,98682.69
2023-01-02T08:24:11.156Z,98682.16
2023-01-02T08:26:44.254Z,98646.69
2023-01-02T08:29:17.373Z,98651.31
2023-01-02T08:31:49.692Z,98667.94
2023-01-02T08:34:22.881Z,98695.50
2023-01-02T08:36:56.019Z,98705.69
2023-01-02T08:39:30.142Z,98702.53
2023-01-02T08:42:03.299Z,98699.84
2023-01-02T08:44:39.395Z,98713.00
2023-01-02T08:47:12.548Z,98715.75
2023-01-02T08:49:44.831Z,98712.06
2023-01-02T08:52:17.991Z,98736.50
2023-01-02T08:54:50.736Z,98745.06
2023-01-02T08:57:25.769Z,98726.66
2023-01-02T08:59:58.079Z,98733.97
2023-01-02T09:02:31.324Z,98722.78
2023-01-02T09:05:03.807Z,98738.50
2023-01-02T09:07:36.507Z,98734.09
2023-01-02T09:10:09.373Z,98744.22
2023-01-02T09:12:42.324Z,98744.84
2023-01-02T09:15:14.792Z,98748.88
2023-01-02T09:17:47.933Z,98760.03
2023-01-02T09:20:20.247Z,98764.00
2023-01-02T09:22:53.204Z,98771.31
2023-01-02T09:25:25.618Z,98777.31
2023-01-02T09:27:57.545Z,98776.00
2023-01-02T09:30:30.820Z,98783.22
2023-01-02T09:33:02.802Z,98785.56
2023-01-02T09:35:36.204Z,98794.38
2023-01-02T09:38:08.496Z,98784.03
2023-01-02T09:40:52.023Z,98793.53
2023-01-02T09:43:49.133Z,98787.53
2023-01-02T09:46:42.093Z,98789.09
2023-01-02T09:49:19.684Z,98783.38
2023-01-02T09:51:52.652Z,98783.63
2023-01-02T09:54:29.087Z,98791.78
2023-01-02T09:57:29.809Z,98792.84
2023-01-02T10:00:26.260Z,98793.84
2023-01-02T10:04:01.756Z,98795.25
2023-01-02T10:06:48.549Z,98802.31
2023-01-02T10:09:50.655Z,98784.03
2023-01-02T10:12:53.981Z,98796.44
2023-01-02T10:15:29.631Z,98784.66
2023-01-02T10:21:25.593Z,98807.44
2023-01-02T10:24:12.193Z,98795.44
2023-01-02T10:26:53.259Z,98808.19
2023-01-02T10:29:35.689Z,98795.25
2023-01-02T10:32:17.357Z,98798.53
2023-01-02T10:35:07.521Z,98806.81
2023-01-02T10:37:40.716Z,98796.88
2023-01-02T10:40:13.811Z,98805.84
2023-01-02T10:42:59.926Z,98809.16
2023-01-02T10:45:33.900Z,98793.97
2023-01-02T10:48:07.152Z,98800.09
2023-01-02T10:50:46.717Z,98802.09
2023-01-02T10:53:31.046Z,98812.03
2023-01-02T10:56:25.545Z,98803.47
2023-01-02T10:58:58.491Z,98812.56
2023-01-02T11:01:31.571Z,98821.94
2023-01-02T11:04:10.295Z,98810.69
2023-01-02T11:06:59.480Z,98817.13
2023-01-02T11:09:35.846Z,98803.56
2023-01-02T11:12:10.155Z,98812.19
2023-01-02T11:14:42.595Z,98824.75
2023-01-02T11:17:22.463Z,98817.56
2023-01-02T11:19:56.576Z,98805.19
2023-01-02T11:22:37.782Z,98805.81
2023-01-02T11:25:27.373Z,98813.34
2023-01-02T11:28:01.271Z,98798.00
2023-01-02T11:30:44.688Z,98800.72
2023-01-02T11:33:29.147Z,98797.88
2023-01-02T11:36:03.859Z,98793.44
2023-01-02T11:38:57.062Z,98793.44
2023-01-02T11:42:10.090Z,98796.50
2023-01-02T11:44:55.173Z,98797.28
2023-01-02T11:47:42.967Z,98803.56
2023-01-02T11:50:34.662Z,98811.69
2023-01-02T11:53:12.992Z,98799.59
2023-01-02T11:56:08.816Z,98812.47
2023-01-02T11:59:02.595Z,98811.84
2023-01-02T12:02:01.344Z,98816.66
2023-01-02T12:04:34.038Z,98819.66
2023-01-02T12:07:36.871Z,98808.66
2023-01-02T12:10:41.645Z,98811.78
2023-01-02T12:13:32.544Z,98802.97
2023-01-02T12:16:28.655Z,98806.00
2023-01-02T12:19:23.812Z,98820.34
2023-01-02T12:22:18.623Z,98817.03
2023-01-02T12:25:17.905Z,98818.91
2023-01-02T12:28:07.667Z,98833.53
2023-01-02T12:30:57.738Z,98818.84
2023-01-02T12:34:23.521Z,98822.25
2023-01-02T12:37:30.458Z,98832.38
2023-01-02T12:40:28.198Z,98836.97
2023-01-02T12:43:22.188Z,98836.31
2023-01-02T12:46:32.107Z,98842.00
2023-01-02T12:49:41.784Z,98837.28
2023-01-02T12:52:37.245Z,98842.66
2023-01-02T12:56:03.335Z,98835.50
2023-01-02T12:58:49.931Z,98846.78
2023-01-02T13:01:37.630Z,98846.84
2023-01-02T13:04:21.143Z,98848.25
2023-01-02T13:07:10.632Z,98845.19
2023-01-02T13:09:45.995Z,98849.16
2023-01-02T13:12:26.071Z,98861.19
2023-01-02T13:15:09.709Z,98856.47
2023-01-02T13:17:53.339Z,98867.91
2023-01-02T13:20:56.119Z,98873.22
2023-01-02T13:23:44.348Z,98876.59
2023-01-02T13:26:20.726Z,98876.09
2023-01-02T13:29:20.938Z,98879.41
2023-01-02T13:31:55.175Z,98885.44
2023-01-02T13:34:31.906Z,98888.84
2023-01-02T13:37:19.239Z,98907.38
2023-01-02T13:39:59.135Z,98907.41
2023-01-02T13:42:55.571Z,98920.25
2023-01-02T13:45:52.204Z,98924.38
2023-01-02T13:48:44.000Z,98939.28
2023-01-02T13:51:22.006Z,98951.47
2023-01-02T13:53:54.931Z,98954.28
2023-01-02T13:56:29.924Z,98956.53
2023-01-02T13:59:43.244Z,98965.94
2023-01-02T14:02:20.559Z,98980.69
2023-01-02T14:04:52.911Z,98970.72
2023-01-02T14:07:25.531Z,98976.03
2023-01-02T14:10:09.899Z,98984.75
2023-01-02T14:13:06.270Z,98986.06
2023-01-02T14:16:12.719Z,98987.44
2023-01-02T14:18:46.932Z,98996.09
2023-01-02T14:21:19.764Z,99002.78
2023-01-02T14:24:17.404Z,99003.50
2023-01-02T14:27:00.848Z,99006.16
2023-01-02T14:29:49.024Z,99015.50
2023-01-02T14:32:33.791Z,99020.84
2023-01-02T14:35:25.687Z,99026.16
2023-01-02T14:38:34.384Z,99026.84
2023-01-02T14:41:40.252Z,99039.44
2023-01-02T14:44:13.674Z,99041.41
2023-01-02T14:46:45.758Z,99035.41
2023-01-02T14:49:25.211Z,99038.06
2023-01-02T14:52:06.104Z,99034.75
2023-01-02T14:54:57.237Z,99045.31
2023-01-02T14:57:35.931Z,99039.31
2023-01-02T15:00:18.864Z,99037.97
2023-01-02T15:02:59.494Z,99044.53
2023-01-02T15:05:47.856Z,99035.25
2023-01-02T15:08:33.807Z,99035.25
2023-01-02T15:11:43.311Z,99033.25
2023-01-02T15:14:23.635Z,99039.19
2023-01-02T15:19:54.340Z,99042.50
2023-01-02T15:22:30.572Z,99045.19
2023-01-02T15:25:03.540Z,99043.91
2023-01-02T15:27:36.362Z,99034.00
2023-01-02T15:30:32.379Z,99052.53
2023-01-02T15:33:32.740Z,99056.53
2023-01-02T15:36:07.176Z,99063.78
2023-01-02T15:38:39.768Z,99057.16
2023-01-02T15:41:20.305Z,99059.13
2023-01-02T15:44:16.953Z,99062.41
2023-01-02T15:46:50.298Z,99071.03
2023-01-02T15:49:23.333Z,99077.00
2023-01-02T15:51:57.924Z,99088.97
2023-01-02T15:54:35.956Z,99080.41
2023-01-02T15:57:17.194Z,99094.31
2023-01-02T15:59:49.604Z,99101.59
2023-01-02T16:02:43.919Z,99111.53
2023-01-02T16:05:18.340Z,99106.25
2023-01-02T16:07:53.790Z,99116.22
2023-01-02T16:10:29.673Z,99113.56
2023-01-02T16:13:36.712Z,99119.53
2023-01-02T16:16:15.874Z,99120.88
2023-01-02T16:19:20.195Z,99118.22
2023-01-02T16:22:03.868Z,99133.44
2023-01-02T16:24:44.664Z,99140.75
2023-01-02T16:27:28.591Z,99136.16
2023-01-02T16:30:01.331Z,99138.06
2023-01-02T16:32:33.472Z,99148.03
2023-01-02T16:35:12.218Z,99148.03
2023-01-02T16:37:55.506Z,99152.00
2023-01-02T16:41:01.148Z,99162.59
2023-01-02T16:43:24.890Z,99171.84
2023-01-02T16:45:59.188Z,99175.84
2023-01-02T16:48:33.638Z,99161.25
2023-01-02T16:51:07.289Z,99167.22
2023-01-02T16:53:43.596Z,99157.97
2023-01-02T16:56:16.181Z,99174.50
2023-01-02T16:58:51.092Z,99175.81
2023-01-02T17:01:24.211Z,99179.78
2023-01-02T17:03:57.249Z,99180.44
2023-01-02T17:06:29.561Z,99199.63
2023-01-02T17:09:01.523Z,99190.34
2023-01-02T17:11:34.328Z,99197.63
2023-01-02T17:14:06.310Z,99198.22
2023-01-02T17:16:39.100Z,99192.94
2023-01-02T17:19:11.461Z,99200.19
2023-01-02T17:21:47.839Z,99208.06
2023-01-02T17:24:21.187Z,99210.69
2023-01-02T17:26:53.210Z,99206.06
2023-01-02T17:29:25.916Z,99204.69
2023-01-02T17:31:57.987Z,99207.97
2023-01-02T17:34:32.478Z,99217.19
2023-01-02T17:37:07.420Z,99217.75
2023-01-02T17:39:40.164Z,99217.09
2023-01-02T17:42:13.135Z,99216.34
2023-01-02T17:44:46.331Z,99225.56
2023-01-02T17:47:48.662Z,99235.41
2023-01-02T17:50:12.502Z,99232.63
2023-01-02T17:52:44.836Z,99235.91
2023-01-02T17:55:17.265Z,99243.84
2023-01-02T17:57:49.203Z,99242.47
2023-01-02T18:00:26.094Z,99243.09
2023-01-02T18:02:59.458Z,99252.34
2023-01-02T18:05:33.273Z,99248.91
2023-01-02T18:08:05.658Z,99250.84
2023-01-02T18:10:38.942Z,99261.94
2023-01-02T18:13:11.581Z,99259.31
2023-01-02T18:15:44.605Z,99263.28
2023-01-02T18:18:17.668Z,99260.66
2023-01-02T18:20:49.617Z,99252.06
2023-01-02T18:23:22.358Z,99256.66
2023-01-02T18:25:54.643Z,99259.97
2023-01-02T18:28:26.943Z,99256.75
2023-01-02T18:31:00.620Z,99269.25
2023-01-02T18:33:33.842Z,99272.50
2023-01-02T18:36:31.603Z,99268.56
2023-01-02T18:39:42.911Z,99283.06
2023-01-02T18:42:20.717Z,99278.47
2023-01-02T18:44:55.542Z,99285.66
2023-01-02T18:47:32.903Z,99284.28
2023-01-02T18:50:23.285Z,99280.28
2023-01-02T18:52:55.950Z,99278.31
2023-01-02T18:55:34.204Z,99285.59
2023-01-02T18:58:34.225Z,99293.44
2023-01-02T19:01:34.912Z,99299.44
2023-01-02T19:04:19.039Z,99300.13
2023-01-02T19:07:02.834Z,99302.81
2023-01-02T19:09:36.147Z,99310.06
2023-01-02T19:12:33.371Z,99319.41
2023-01-02T19:15:37.685Z,99319.88
2023-01-02T19:18:28.978Z,99321.94
2023-01-02T19:21:15.022Z,99320.53
2023-01-02T19:24:18.930Z,99322.47
2023-01-02T19:26:56.718Z,99329.19
2023-01-02T19:29:35.605Z,99333.81
2023-01-02T19:32:29.466Z,99333.81
2023-01-02T19:35:50.804Z,99337.81
2023-01-02T19:38:28.309Z,99347.81
2023-01-02T19:41:01.321Z,99347.00
2023-01-02T19:43:34.821Z,99351.00
2023-01-02T19:46:07.645Z,99358.25
2023-01-02T19:48:39.537Z,99353.53
2023-01-02T19:51:12.285Z,99363.53
2023-01-02T19:53:44.387Z,99352.16
2023-01-02T19:56:17.179Z,99356.81
2023-01-02T19:58:50.452Z,99359.31
2023-01-02T20:01:23.717Z,99363.28
2023-01-02T20:03:55.626Z,99365.19
2023-01-02T20:06:28.862Z,99371.09
2023-01-02T20:09:01.161Z,99364.25
2023-01-02T20:11:52.329Z,99368.00
2023-01-02T20:14:25.204Z,99378.63
2023-01-02T20:16:57.957Z,99391.22
2023-01-02T20:19:29.835Z,99395.88
2023-01-02T20:22:03.177Z,99381.34
2023-01-02T20:24:35.797Z,99393.88
2023-01-02T20:27:08.534Z,99393.25
2023-01-02T20:29:41.880Z,99395.25
2023-01-02T20:32:15.326Z,99397.22
2023-01-02T20:34:48.064Z,99398.50
2023-01-02T20:37:21.166Z,99397.34
2023-01-02T20:39:54.884Z,99404.53
2023-01-02T20:42:26.743Z,99408.34
2023-01-02T20:44:59.663Z,99406.25
2023-01-02T20:47:31.627Z,99406.88
2023-01-02T20:50:05.697Z,99412.09
2023-01-02T20:52:38.398Z,99413.41
2023-01-02T20:55:11.355Z,99426.44
2023-01-02T20:57:45.937Z,99426.97
2023-01-02T21:00:20.695Z,99433.47
2023-01-02T21:02:53.292Z,99436.72
2023-01-02T21:05:25.359Z,99422.72
2023-01-02T21:07:58.353Z,99426.72
2023-01-02T21:10:30.236Z,99431.13
2023-01-02T21:13:11.121Z,99435.75
2023-01-02T21:15:52.087Z,99437.03
2023-01-02T21:18:37.938Z,99448.81
2023-01-02T21:21:16.749Z,99454.69
2023-01-02T21:23:50.281Z,99442.81
2023-01-02T21:26:23.971Z,99446.66
2023-01-02T21:28:56.767Z,99449.34
2023-01-02T21:31:29.851Z,99451.38
2023-01-02T21:34:02.648Z,99463.81
2023-01-02T21:36:39.752Z,99480.88
2023-01-02T21:39:12.462Z,99484.13
2023-01-02T21:42:02.741Z,99495.34
2023-01-02T21:44:35.468Z,99499.22
2023-01-02T21:47:07.743Z,99493.94
2023-01-02T21:49:40.641Z,99492.59
2023-01-02T21:52:14.299Z,99491.91
2023-01-02T21:54:46.588Z,99494.44
2023-01-02T21:57:27.573Z,99495.22
2023-01-02T22:00:15.314Z,99488.53
2023-01-02T22:02:48.722Z,99490.47
2023-01-02T22:05:22.435Z,99493.09
2023-01-02T22:07:55.163Z,99477.16
2023-01-02T22:10:27.772Z,99472.41
2023-01-02T22:13:00.963Z,99473.09
2023-01-02T22:15:33.873Z,99463.91
2023-01-02T22:18:06.618Z,99457.88
2023-01-02T22:20:39.539Z,99453.94
2023-01-02T22:23:11.878Z,99457.13
2023-01-02T22:25:44.174Z,99458.59
2023-01-02T22:28:16.482Z,99460.31
2023-01-02T22:30:48.769Z,99477.94
2023-01-02T22:33:21.552Z,99490.78
2023-01-02T22:35:53.453Z,99497.19
2023-01-02T22:38:26.163Z,99510.41
2023-01-02T22:40:58.614Z,99509.31
2023-01-02T22:43:37.353Z,99514.69
2023-01-02T22:46:19.069Z,99521.22
2023-01-02T22:48:51.834Z,99521.13
2023-01-02T22:51:57.326Z,99524.59
2023-01-02T22:54:19.495Z,99527.75
2023-01-02T22:56:52.218Z,99526.66
2023-01-02T22:59:24.093Z,99529.13
2023-01-02T23:01:57.365Z,99525.63
2023-01-02T23:04:29.872Z,99530.09
2023-01-02T23:09:54.698Z,99527.09
2023-01-02T23:12:26.581Z,99536.47
2023-01-02T23:14:59.743Z,99543.75
2023-01-02T23:17:51.050Z,99553.06
2023-01-02T23:20:23.401Z,99557.59
2023-01-02T23:22:55.392Z,99570.19
2023-01-02T23:25:28.171Z,99566.78
2023-01-02T23:28:00.088Z,99563.66
2023-01-02T23:30:33.379Z,99560.38
2023-01-02T23:33:05.254Z,99548.00
2023-01-02T23:35:38.534Z,99539.72
2023-01-02T23:38:11.928Z,99547.88
2023-01-02T23:40:44.706Z,99547.31
2023-01-02T23:43:17.012Z,99553.16
2023-01-02T23:45:49.818Z,99549.16
2023-01-02T23:48:21.864Z,99533.69
2023-01-02T23:51:03.821Z,99519.56
2023-01-02T23:53:38.771Z,99521.06
2023-01-02T23:56:33.978Z,99517.41
2023-01-02T23:59:10.988Z,99516.13
